sensor_id;sensor_type;location;lat;lon;timestamp;P1;durP1;ratioP1;P2;durP2;ratioP2
38479;SDS011;62333;51.980;5.934;2023-06-19T00:01:55;5.32;;;3.03;;
38479;SDS011;62333;51.980;5.934;2023-06-19T00:04:21;6.13;;;3.30;;
38479;SDS011;62333;51.980;5.934;2023-06-19T00:06:47;5.70;;;3.08;;
38479;SDS011;62333;51.980;5.934;2023-06-19T00:09:13;4.95;;;2.55;;
38479;SDS011;62333;51.980;5.934;2023-06-19T00:11:39;7.47;;;3.28;;
38479;SDS011;62333;51.980;5.934;2023-06-19T00:14:05;4.57;;;2.78;;
38479;SDS011;62333;51.980;5.934;2023-06-19T00:16:31;6.60;;;3.28;;
38479;SDS011;62333;51.980;5.934;2023-06-19T00:18:57;8.45;;;2.90;;
38479;SDS011;62333;51.980;5.934;2023-06-19T00:21:23;4.30;;;3.00;;
38479;SDS011;62333;51.980;5.934;2023-06-19T00:23:50;7.18;;;3.30;;
38479;SDS011;62333;51.980;5.934;2023-06-19T00:26:17;4.55;;;3.08;;
38479;SDS011;62333;51.980;5.934;2023-06-19T00:28:46;4.18;;;2.40;;
38479;SDS011;62333;51.980;5.934;2023-06-19T00:31:15;4.15;;;3.05;;
38479;SDS011;62333;51.980;5.934;2023-06-19T00:33:41;6.55;;;3.03;;
38479;SDS011;62333;51.980;5.934;2023-06-19T00:36:10;4.28;;;2.83;;
38479;SDS011;62333;51.980;5.934;2023-06-19T00:38:37;4.07;;;2.70;;
38479;SDS011;62333;51.980;5.934;2023-06-19T00:41:04;4.43;;;2.33;;
38479;SDS011;62333;51.980;5.934;2023-06-19T00:43:30;3.70;;;2.67;;
38479;SDS011;62333;51.980;5.934;2023-06-19T00:45:57;3.55;;;2.28;;
38479;SDS011;62333;51.980;5.934;2023-06-19T00:48:23;3.55;;;1.95;;
38479;SDS011;62333;51.980;5.934;2023-06-19T00:50:49;3.88;;;2.45;;
38479;SDS011;62333;51.980;5.934;2023-06-19T00:53:15;5.55;;;2.63;;
38479;SDS011;62333;51.980;5.934;2023-06-19T00:55:42;5.53;;;2.58;;
38479;SDS011;62333;51.980;5.934;2023-06-19T00:58:09;7.03;;;2.35;;
38479;SDS011;62333;51.980;5.934;2023-06-19T01:00:35;3.38;;;2.30;;
38479;SDS011;62333;51.980;5.934;2023-06-19T01:03:01;5.55;;;2.33;;
38479;SDS011;62333;51.980;5.934;2023-06-19T01:05:26;5.15;;;3.22;;
38479;SDS011;62333;51.980;5.934;2023-06-19T01:08:09;3.67;;;2.72;;
38479;SDS011;62333;51.980;5.934;2023-06-19T01:10:58;4.90;;;2.85;;
38479;SDS011;62333;51.980;5.934;2023-06-19T01:15:54;6.20;;;2.47;;
38479;SDS011;62333;51.980;5.934;2023-06-19T01:18:20;4.85;;;2.33;;
38479;SDS011;62333;51.980;5.934;2023-06-19T01:20:48;5.45;;;2.58;;
38479;SDS011;62333;51.980;5.934;2023-06-19T01:23:14;3.80;;;2.28;;
38479;SDS011;62333;51.980;5.934;2023-06-19T01:25:40;5.78;;;3.15;;
38479;SDS011;62333;51.980;5.934;2023-06-19T01:28:06;6.60;;;2.85;;
38479;SDS011;62333;51.980;5.934;2023-06-19T01:30:35;3.53;;;2.22;;
38479;SDS011;62333;51.980;5.934;2023-06-19T01:33:11;3.55;;;2.17;;
38479;SDS011;62333;51.980;5.934;2023-06-19T01:35:42;3.30;;;1.70;;
38479;SDS011;62333;51.980;5.934;2023-06-19T01:38:11;4.13;;;1.70;;
38479;SDS011;62333;51.980;5.934;2023-06-19T01:40:38;5.10;;;2.03;;
38479;SDS011;62333;51.980;5.934;2023-06-19T01:43:05;6.05;;;2.97;;
38479;SDS011;62333;51.980;5.934;2023-06-19T01:45:33;7.75;;;2.35;;
38479;SDS011;62333;51.980;5.934;2023-06-19T01:47:59;4.18;;;1.77;;
38479;SDS011;62333;51.980;5.934;2023-06-19T01:50:25;4.00;;;2.30;;
38479;SDS011;62333;51.980;5.934;2023-06-19T01:52:50;3.40;;;2.28;;
38479;SDS011;62333;51.980;5.934;2023-06-19T01:55:16;4.40;;;1.90;;
38479;SDS011;62333;51.980;5.934;2023-06-19T01:57:43;4.57;;;1.85;;
38479;SDS011;62333;51.980;5.934;2023-06-19T02:00:11;5.32;;;2.03;;
38479;SDS011;62333;51.980;5.934;2023-06-19T02:02:37;3.20;;;1.92;;
38479;SDS011;62333;51.980;5.934;2023-06-19T02:05:02;3.63;;;1.67;;
38479;SDS011;62333;51.980;5.934;2023-06-19T02:07:29;3.05;;;1.92;;
38479;SDS011;62333;51.980;5.934;2023-06-19T02:09:55;3.20;;;2.00;;
38479;SDS011;62333;51.980;5.934;2023-06-19T02:12:21;5.07;;;1.70;;
38479;SDS011;62333;51.980;5.934;2023-06-19T02:14:47;3.83;;;3.13;;
38479;SDS011;62333;51.980;5.934;2023-06-19T02:17:12;4.13;;;1.73;;
38479;SDS011;62333;51.980;5.934;2023-06-19T02:19:38;3.40;;;1.65;;
38479;SDS011;62333;51.980;5.934;2023-06-19T02:22:04;2.92;;;1.80;;
38479;SDS011;62333;51.980;5.934;2023-06-19T02:24:31;3.70;;;2.10;;
38479;SDS011;62333;51.980;5.934;2023-06-19T02:26:57;3.10;;;1.80;;
38479;SDS011;62333;51.980;5.934;2023-06-19T02:29:23;3.63;;;1.70;;
38479;SDS011;62333;51.980;5.934;2023-06-19T02:31:49;3.40;;;1.55;;
38479;SDS011;62333;51.980;5.934;2023-06-19T02:34:15;3.63;;;1.45;;
38479;SDS011;62333;51.980;5.934;2023-06-19T02:36:41;4.63;;;1.90;;
38479;SDS011;62333;51.980;5.934;2023-06-19T02:39:07;2.97;;;1.33;;
38479;SDS011;62333;51.980;5.934;2023-06-19T02:41:33;3.08;;;1.60;;
38479;SDS011;62333;51.980;5.934;2023-06-19T02:43:59;3.28;;;1.77;;
38479;SDS011;62333;51.980;5.934;2023-06-19T02:46:25;3.55;;;1.40;;
38479;SDS011;62333;51.980;5.934;2023-06-19T02:48:51;5.55;;;1.98;;
38479;SDS011;62333;51.980;5.934;2023-06-19T02:51:17;2.75;;;1.63;;
38479;SDS011;62333;51.980;5.934;2023-06-19T02:53:42;6.85;;;2.00;;
38479;SDS011;62333;51.980;5.934;2023-06-19T02:56:09;3.20;;;1.20;;
38479;SDS011;62333;51.980;5.934;2023-06-19T02:58:36;5.53;;;1.55;;
38479;SDS011;62333;51.980;5.934;2023-06-19T03:01:02;1.98;;;1.02;;
38479;SDS011;62333;51.980;5.934;2023-06-19T03:03:28;2.15;;;1.30;;
38479;SDS011;62333;51.980;5.934;2023-06-19T03:05:55;1.70;;;0.73;;
38479;SDS011;62333;51.980;5.934;2023-06-19T03:08:21;2.55;;;0.90;;
38479;SDS011;62333;51.980;5.934;2023-06-19T03:10:47;3.72;;;0.63;;
38479;SDS011;62333;51.980;5.934;2023-06-19T03:13:12;3.25;;;0.80;;
38479;SDS011;62333;51.980;5.934;2023-06-19T03:15:38;3.60;;;1.15;;
38479;SDS011;62333;51.980;5.934;2023-06-19T03:18:04;2.22;;;0.65;;
38479;SDS011;62333;51.980;5.934;2023-06-19T03:20:32;2.95;;;1.25;;
38479;SDS011;62333;51.980;5.934;2023-06-19T03:22:58;2.33;;;1.27;;
38479;SDS011;62333;51.980;5.934;2023-06-19T03:25:24;2.25;;;0.80;;
38479;SDS011;62333;51.980;5.934;2023-06-19T03:27:49;2.08;;;1.20;;
38479;SDS011;62333;51.980;5.934;2023-06-19T03:30:15;1.38;;;0.55;;
38479;SDS011;62333;51.980;5.934;2023-06-19T03:32:43;1.70;;;0.80;;
38479;SDS011;62333;51.980;5.934;2023-06-19T03:35:09;1.92;;;0.98;;
38479;SDS011;62333;51.980;5.934;2023-06-19T03:37:35;2.63;;;0.90;;
38479;SDS011;62333;51.980;5.934;2023-06-19T03:40:01;2.67;;;1.10;;
38479;SDS011;62333;51.980;5.934;2023-06-19T03:42:28;3.83;;;0.82;;
38479;SDS011;62333;51.980;5.934;2023-06-19T03:44:54;2.10;;;0.90;;
38479;SDS011;62333;51.980;5.934;2023-06-19T03:47:20;3.25;;;0.93;;
38479;SDS011;62333;51.980;5.934;2023-06-19T03:49:46;1.88;;;0.63;;
38479;SDS011;62333;51.980;5.934;2023-06-19T03:52:13;3.03;;;1.20;;
38479;SDS011;62333;51.980;5.934;2023-06-19T03:54:39;1.95;;;0.70;;
38479;SDS011;62333;51.980;5.934;2023-06-19T03:57:05;2.72;;;1.00;;
38479;SDS011;62333;51.980;5.934;2023-06-19T03:59:31;2.05;;;0.68;;
38479;SDS011;62333;51.980;5.934;2023-06-19T04:01:56;4.45;;;0.70;;
38479;SDS011;62333;51.980;5.934;2023-06-19T04:04:22;2.35;;;1.00;;
38479;SDS011;62333;51.980;5.934;2023-06-19T04:06:48;2.28;;;1.00;;
38479;SDS011;62333;51.980;5.934;2023-06-19T04:09:13;3.38;;;1.02;;
38479;SDS011;62333;51.980;5.934;2023-06-19T04:11:39;2.88;;;1.63;;
38479;SDS011;62333;51.980;5.934;2023-06-19T04:14:05;2.42;;;1.25;;
38479;SDS011;62333;51.980;5.934;2023-06-19T04:16:30;2.40;;;1.08;;
38479;SDS011;62333;51.980;5.934;2023-06-19T04:18:56;3.00;;;0.90;;
38479;SDS011;62333;51.980;5.934;2023-06-19T04:21:21;1.40;;;0.70;;
38479;SDS011;62333;51.980;5.934;2023-06-19T04:23:47;2.33;;;0.98;;
38479;SDS011;62333;51.980;5.934;2023-06-19T04:26:13;2.00;;;0.93;;
38479;SDS011;62333;51.980;5.934;2023-06-19T04:28:38;2.33;;;0.60;;
38479;SDS011;62333;51.980;5.934;2023-06-19T04:31:04;1.85;;;0.88;;
38479;SDS011;62333;51.980;5.934;2023-06-19T04:33:30;2.47;;;1.08;;
38479;SDS011;62333;51.980;5.934;2023-06-19T04:35:56;2.25;;;1.08;;
38479;SDS011;62333;51.980;5.934;2023-06-19T04:38:22;2.03;;;0.80;;
38479;SDS011;62333;51.980;5.934;2023-06-19T04:40:50;3.85;;;1.10;;
38479;SDS011;62333;51.980;5.934;2023-06-19T04:43:17;2.38;;;1.20;;
38479;SDS011;62333;51.980;5.934;2023-06-19T04:45:43;2.67;;;0.90;;
38479;SDS011;62333;51.980;5.934;2023-06-19T04:48:08;4.93;;;1.48;;
38479;SDS011;62333;51.980;5.934;2023-06-19T04:50:34;5.30;;;1.45;;
38479;SDS011;62333;51.980;5.934;2023-06-19T04:53:00;5.88;;;1.88;;
38479;SDS011;62333;51.980;5.934;2023-06-19T04:55:26;1.67;;;0.82;;
38479;SDS011;62333;51.980;5.934;2023-06-19T04:57:51;3.03;;;1.23;;
38479;SDS011;62333;51.980;5.934;2023-06-19T05:00:17;3.70;;;0.93;;
38479;SDS011;62333;51.980;5.934;2023-06-19T05:02:48;2.38;;;1.20;;
38479;SDS011;62333;51.980;5.934;2023-06-19T05:05:14;4.22;;;1.63;;
38479;SDS011;62333;51.980;5.934;2023-06-19T05:07:40;2.33;;;1.10;;
38479;SDS011;62333;51.980;5.934;2023-06-19T05:10:06;4.03;;;1.20;;
38479;SDS011;62333;51.980;5.934;2023-06-19T05:12:33;3.45;;;1.33;;
38479;SDS011;62333;51.980;5.934;2023-06-19T05:15:00;5.18;;;1.50;;
38479;SDS011;62333;51.980;5.934;2023-06-19T05:17:26;3.17;;;1.95;;
38479;SDS011;62333;51.980;5.934;2023-06-19T05:19:52;5.22;;;1.50;;
38479;SDS011;62333;51.980;5.934;2023-06-19T05:22:17;3.53;;;1.67;;
38479;SDS011;62333;51.980;5.934;2023-06-19T05:24:44;3.08;;;1.52;;
38479;SDS011;62333;51.980;5.934;2023-06-19T05:27:10;6.45;;;1.80;;
38479;SDS011;62333;51.980;5.934;2023-06-19T05:29:35;3.85;;;2.13;;
38479;SDS011;62333;51.980;5.934;2023-06-19T05:32:01;2.92;;;1.33;;
38479;SDS011;62333;51.980;5.934;2023-06-19T05:34:27;2.47;;;1.35;;
38479;SDS011;62333;51.980;5.934;2023-06-19T05:36:52;3.38;;;1.52;;
38479;SDS011;62333;51.980;5.934;2023-06-19T05:39:18;4.25;;;1.85;;
38479;SDS011;62333;51.980;5.934;2023-06-19T05:41:44;5.75;;;1.45;;
38479;SDS011;62333;51.980;5.934;2023-06-19T05:44:11;3.20;;;1.42;;
38479;SDS011;62333;51.980;5.934;2023-06-19T05:46:41;3.38;;;1.30;;
38479;SDS011;62333;51.980;5.934;2023-06-19T05:49:07;2.53;;;1.48;;
38479;SDS011;62333;51.980;5.934;2023-06-19T05:51:32;2.40;;;1.08;;
38479;SDS011;62333;51.980;5.934;2023-06-19T05:53:58;4.00;;;1.92;;
38479;SDS011;62333;51.980;5.934;2023-06-19T05:56:28;3.45;;;2.03;;
38479;SDS011;62333;51.980;5.934;2023-06-19T05:58:54;3.20;;;1.70;;
38479;SDS011;62333;51.980;5.934;2023-06-19T06:01:20;6.35;;;1.77;;
38479;SDS011;62333;51.980;5.934;2023-06-19T06:03:46;4.57;;;1.75;;
38479;SDS011;62333;51.980;5.934;2023-06-19T06:06:11;2.50;;;1.83;;
38479;SDS011;62333;51.980;5.934;2023-06-19T06:08:37;11.35;;;2.95;;
38479;SDS011;62333;51.980;5.934;2023-06-19T06:11:02;3.60;;;2.22;;
38479;SDS011;62333;51.980;5.934;2023-06-19T06:13:28;4.30;;;2.03;;
38479;SDS011;62333;51.980;5.934;2023-06-19T06:15:54;3.90;;;2.80;;
38479;SDS011;62333;51.980;5.934;2023-06-19T06:18:19;4.38;;;2.85;;
38479;SDS011;62333;51.980;5.934;2023-06-19T06:20:45;7.35;;;3.17;;
38479;SDS011;62333;51.980;5.934;2023-06-19T06:23:11;4.47;;;2.90;;
38479;SDS011;62333;51.980;5.934;2023-06-19T06:25:36;7.13;;;3.50;;
38479;SDS011;62333;51.980;5.934;2023-06-19T06:28:02;6.13;;;3.65;;
38479;SDS011;62333;51.980;5.934;2023-06-19T06:30:28;6.05;;;4.30;;
38479;SDS011;62333;51.980;5.934;2023-06-19T06:32:53;5.75;;;3.95;;
38479;SDS011;62333;51.980;5.934;2023-06-19T06:35:19;8.75;;;4.18;;
38479;SDS011;62333;51.980;5.934;2023-06-19T06:37:45;7.03;;;3.05;;
38479;SDS011;62333;51.980;5.934;2023-06-19T06:40:11;6.35;;;3.28;;
38479;SDS011;62333;51.980;5.934;2023-06-19T06:42:37;5.28;;;2.70;;
38479;SDS011;62333;51.980;5.934;2023-06-19T06:45:07;4.97;;;2.88;;
38479;SDS011;62333;51.980;5.934;2023-06-19T06:47:34;5.22;;;2.92;;
38479;SDS011;62333;51.980;5.934;2023-06-19T06:50:00;6.43;;;3.45;;
38479;SDS011;62333;51.980;5.934;2023-06-19T06:52:25;5.43;;;2.42;;
38479;SDS011;62333;51.980;5.934;2023-06-19T06:54:52;4.65;;;2.40;;
38479;SDS011;62333;51.980;5.934;2023-06-19T06:57:18;4.38;;;3.20;;
38479;SDS011;62333;51.980;5.934;2023-06-19T06:59:44;2.80;;;2.00;;
38479;SDS011;62333;51.980;5.934;2023-06-19T07:02:09;4.13;;;3.03;;
38479;SDS011;62333;51.980;5.934;2023-06-19T07:04:35;5.90;;;3.47;;
38479;SDS011;62333;51.980;5.934;2023-06-19T07:07:01;4.05;;;2.95;;
38479;SDS011;62333;51.980;5.934;2023-06-19T07:09:28;4.40;;;3.20;;
38479;SDS011;62333;51.980;5.934;2023-06-19T07:11:54;4.43;;;2.92;;
38479;SDS011;62333;51.980;5.934;2023-06-19T07:14:20;3.65;;;2.55;;
38479;SDS011;62333;51.980;5.934;2023-06-19T07:16:46;5.65;;;3.15;;
38479;SDS011;62333;51.980;5.934;2023-06-19T07:19:11;4.80;;;2.70;;
38479;SDS011;62333;51.980;5.934;2023-06-19T07:21:37;4.50;;;3.50;;
38479;SDS011;62333;51.980;5.934;2023-06-19T07:24:04;4.82;;;3.55;;
38479;SDS011;62333;51.980;5.934;2023-06-19T07:26:30;5.03;;;2.30;;
38479;SDS011;62333;51.980;5.934;2023-06-19T07:28:56;4.05;;;2.55;;
38479;SDS011;62333;51.980;5.934;2023-06-19T07:31:22;2.67;;;1.50;;
38479;SDS011;62333;51.980;5.934;2023-06-19T07:33:48;4.07;;;2.40;;
38479;SDS011;62333;51.980;5.934;2023-06-19T07:36:14;5.70;;;2.58;;
38479;SDS011;62333;51.980;5.934;2023-06-19T07:38:41;4.03;;;2.55;;
38479;SDS011;62333;51.980;5.934;2023-06-19T07:41:08;3.88;;;2.13;;
38479;SDS011;62333;51.980;5.934;2023-06-19T07:43:35;6.40;;;3.38;;
38479;SDS011;62333;51.980;5.934;2023-06-19T07:46:01;3.88;;;1.73;;
38479;SDS011;62333;51.980;5.934;2023-06-19T07:48:27;5.35;;;2.13;;
38479;SDS011;62333;51.980;5.934;2023-06-19T07:50:53;3.75;;;2.45;;
38479;SDS011;62333;51.980;5.934;2023-06-19T07:53:19;5.43;;;2.92;;
38479;SDS011;62333;51.980;5.934;2023-06-19T07:55:45;5.47;;;3.65;;
38479;SDS011;62333;51.980;5.934;2023-06-19T07:58:11;4.75;;;3.33;;
38479;SDS011;62333;51.980;5.934;2023-06-19T08:00:36;4.28;;;3.05;;
38479;SDS011;62333;51.980;5.934;2023-06-19T08:03:02;5.78;;;3.25;;
38479;SDS011;62333;51.980;5.934;2023-06-19T08:05:29;7.13;;;4.45;;
38479;SDS011;62333;51.980;5.934;2023-06-19T08:07:55;5.50;;;3.33;;
38479;SDS011;62333;51.980;5.934;2023-06-19T08:10:21;4.25;;;3.10;;
38479;SDS011;62333;51.980;5.934;2023-06-19T08:12:47;4.32;;;3.40;;
38479;SDS011;62333;51.980;5.934;2023-06-19T08:15:13;7.43;;;4.55;;
38479;SDS011;62333;51.980;5.934;2023-06-19T08:17:39;9.30;;;3.97;;
38479;SDS011;62333;51.980;5.934;2023-06-19T08:20:05;7.05;;;4.40;;
38479;SDS011;62333;51.980;5.934;2023-06-19T08:22:32;5.25;;;3.92;;
38479;SDS011;62333;51.980;5.934;2023-06-19T08:24:58;5.40;;;3.20;;
38479;SDS011;62333;51.980;5.934;2023-06-19T08:27:23;7.05;;;3.97;;
38479;SDS011;62333;51.980;5.934;2023-06-19T08:29:49;6.88;;;4.78;;
38479;SDS011;62333;51.980;5.934;2023-06-19T08:32:16;5.57;;;4.38;;
38479;SDS011;62333;51.980;5.934;2023-06-19T08:34:41;6.90;;;4.78;;
38479;SDS011;62333;51.980;5.934;2023-06-19T08:37:07;5.63;;;4.15;;
38479;SDS011;62333;51.980;5.934;2023-06-19T08:39:33;4.32;;;3.15;;
38479;SDS011;62333;51.980;5.934;2023-06-19T08:42:01;6.45;;;4.45;;
38479;SDS011;62333;51.980;5.934;2023-06-19T08:44:27;8.20;;;4.63;;
38479;SDS011;62333;51.980;5.934;2023-06-19T08:46:53;6.05;;;4.43;;
38479;SDS011;62333;51.980;5.934;2023-06-19T08:49:19;4.70;;;2.72;;
38479;SDS011;62333;51.980;5.934;2023-06-19T08:51:45;6.88;;;3.50;;
38479;SDS011;62333;51.980;5.934;2023-06-19T08:54:10;7.10;;;4.72;;
38479;SDS011;62333;51.980;5.934;2023-06-19T08:56:36;7.25;;;4.70;;
38479;SDS011;62333;51.980;5.934;2023-06-19T08:59:09;6.47;;;3.72;;
38479;SDS011;62333;51.980;5.934;2023-06-19T09:01:37;5.03;;;3.10;;
38479;SDS011;62333;51.980;5.934;2023-06-19T09:04:12;7.00;;;3.97;;
38479;SDS011;62333;51.980;5.934;2023-06-19T09:06:51;7.47;;;3.60;;
38479;SDS011;62333;51.980;5.934;2023-06-19T09:09:29;6.45;;;5.60;;
38479;SDS011;62333;51.980;5.934;2023-06-19T09:12:01;5.85;;;4.22;;
38479;SDS011;62333;51.980;5.934;2023-06-19T09:16:57;7.07;;;4.30;;
38479;SDS011;62333;51.980;5.934;2023-06-19T09:19:23;6.25;;;4.35;;
38479;SDS011;62333;51.980;5.934;2023-06-19T09:21:48;4.93;;;4.43;;
38479;SDS011;62333;51.980;5.934;2023-06-19T09:24:14;5.68;;;4.07;;
38479;SDS011;62333;51.980;5.934;2023-06-19T09:26:40;5.35;;;3.85;;
38479;SDS011;62333;51.980;5.934;2023-06-19T09:29:10;5.03;;;4.10;;
38479;SDS011;62333;51.980;5.934;2023-06-19T09:31:41;4.85;;;3.53;;
38479;SDS011;62333;51.980;5.934;2023-06-19T09:34:07;6.97;;;4.00;;
38479;SDS011;62333;51.980;5.934;2023-06-19T09:36:33;6.22;;;4.45;;
38479;SDS011;62333;51.980;5.934;2023-06-19T09:39:01;6.03;;;4.45;;
38479;SDS011;62333;51.980;5.934;2023-06-19T09:41:28;5.47;;;3.50;;
38479;SDS011;62333;51.980;5.934;2023-06-19T09:43:55;6.82;;;4.82;;
38479;SDS011;62333;51.980;5.934;2023-06-19T09:46:30;6.55;;;4.45;;
38479;SDS011;62333;51.980;5.934;2023-06-19T09:48:58;6.53;;;3.67;;
38479;SDS011;62333;51.980;5.934;2023-06-19T09:51:33;7.38;;;4.20;;
38479;SDS011;62333;51.980;5.934;2023-06-19T09:54:03;6.78;;;4.07;;
38479;SDS011;62333;51.980;5.934;2023-06-19T09:56:31;5.15;;;4.05;;
38479;SDS011;62333;51.980;5.934;2023-06-19T09:58:59;5.47;;;3.90;;
38479;SDS011;62333;51.980;5.934;2023-06-19T10:01:26;7.95;;;4.55;;
38479;SDS011;62333;51.980;5.934;2023-06-19T10:04:14;5.22;;;4.05;;
38479;SDS011;62333;51.980;5.934;2023-06-19T10:06:42;10.57;;;4.97;;
38479;SDS011;62333;51.980;5.934;2023-06-19T10:09:10;9.23;;;6.28;;
38479;SDS011;62333;51.980;5.934;2023-06-19T10:11:45;7.32;;;4.35;;
38479;SDS011;62333;51.980;5.934;2023-06-19T10:14:16;4.82;;;3.78;;
38479;SDS011;62333;51.980;5.934;2023-06-19T10:16:44;4.53;;;3.42;;
38479;SDS011;62333;51.980;5.934;2023-06-19T10:19:16;7.85;;;4.38;;
38479;SDS011;62333;51.980;5.934;2023-06-19T10:21:47;9.55;;;7.28;;
38479;SDS011;62333;51.980;5.934;2023-06-19T10:24:17;5.35;;;4.18;;
38479;SDS011;62333;51.980;5.934;2023-06-19T10:26:58;5.70;;;4.67;;
38479;SDS011;62333;51.980;5.934;2023-06-19T10:29:25;5.70;;;3.87;;
38479;SDS011;62333;51.980;5.934;2023-06-19T10:31:53;5.85;;;4.43;;
38479;SDS011;62333;51.980;5.934;2023-06-19T10:34:19;5.22;;;4.03;;
38479;SDS011;62333;51.980;5.934;2023-06-19T10:36:44;6.07;;;4.63;;
38479;SDS011;62333;51.980;5.934;2023-06-19T10:39:10;6.20;;;3.95;;
38479;SDS011;62333;51.980;5.934;2023-06-19T10:41:39;6.03;;;5.40;;
38479;SDS011;62333;51.980;5.934;2023-06-19T10:44:06;6.93;;;4.95;;
38479;SDS011;62333;51.980;5.934;2023-06-19T10:46:37;7.18;;;4.97;;
38479;SDS011;62333;51.980;5.934;2023-06-19T10:49:04;5.93;;;5.10;;
38479;SDS011;62333;51.980;5.934;2023-06-19T10:51:39;4.43;;;3.42;;
38479;SDS011;62333;51.980;5.934;2023-06-19T10:54:08;6.93;;;5.20;;
38479;SDS011;62333;51.980;5.934;2023-06-19T10:56:35;7.45;;;4.70;;
38479;SDS011;62333;51.980;5.934;2023-06-19T10:59:02;5.82;;;5.22;;
38479;SDS011;62333;51.980;5.934;2023-06-19T11:01:37;4.88;;;4.22;;
38479;SDS011;62333;51.980;5.934;2023-06-19T11:04:05;5.32;;;4.82;;
38479;SDS011;62333;51.980;5.934;2023-06-19T11:06:31;6.53;;;4.85;;
38479;SDS011;62333;51.980;5.934;2023-06-19T11:08:57;8.48;;;5.88;;
38479;SDS011;62333;51.980;5.934;2023-06-19T11:11:34;7.57;;;5.25;;
38479;SDS011;62333;51.980;5.934;2023-06-19T11:14:04;5.22;;;4.40;;
38479;SDS011;62333;51.980;5.934;2023-06-19T11:16:30;7.13;;;5.65;;
38479;SDS011;62333;51.980;5.934;2023-06-19T11:18:56;7.47;;;6.55;;
38479;SDS011;62333;51.980;5.934;2023-06-19T11:21:29;7.80;;;5.50;;
38479;SDS011;62333;51.980;5.934;2023-06-19T11:23:58;6.97;;;4.80;;
38479;SDS011;62333;51.980;5.934;2023-06-19T11:26:26;8.20;;;4.78;;
38479;SDS011;62333;51.980;5.934;2023-06-19T11:28:52;4.30;;;3.63;;
38479;SDS011;62333;51.980;5.934;2023-06-19T11:31:24;5.97;;;4.70;;
38479;SDS011;62333;51.980;5.934;2023-06-19T11:34:00;5.57;;;3.47;;
38479;SDS011;62333;51.980;5.934;2023-06-19T11:36:27;5.97;;;3.65;;
38479;SDS011;62333;51.980;5.934;2023-06-19T11:38:54;5.82;;;3.72;;
38479;SDS011;62333;51.980;5.934;2023-06-19T11:41:26;5.47;;;4.30;;
38479;SDS011;62333;51.980;5.934;2023-06-19T11:44:06;10.40;;;6.25;;
38479;SDS011;62333;51.980;5.934;2023-06-19T11:46:34;7.18;;;4.47;;
38479;SDS011;62333;51.980;5.934;2023-06-19T11:49:12;6.28;;;4.43;;
38479;SDS011;62333;51.980;5.934;2023-06-19T11:51:39;4.30;;;3.10;;
38479;SDS011;62333;51.980;5.934;2023-06-19T11:54:06;5.05;;;3.47;;
38479;SDS011;62333;51.980;5.934;2023-06-19T11:56:35;6.35;;;4.10;;
38479;SDS011;62333;51.980;5.934;2023-06-19T11:59:02;4.68;;;3.60;;
38479;SDS011;62333;51.980;5.934;2023-06-19T12:01:33;8.63;;;2.97;;
38479;SDS011;62333;51.980;5.934;2023-06-19T12:04:01;7.78;;;4.10;;
38479;SDS011;62333;51.980;5.934;2023-06-19T12:06:28;5.63;;;4.13;;
38479;SDS011;62333;51.980;5.934;2023-06-19T12:08:54;5.18;;;2.92;;
38479;SDS011;62333;51.980;5.934;2023-06-19T12:11:20;9.23;;;3.55;;
38479;SDS011;62333;51.980;5.934;2023-06-19T12:13:46;4.00;;;2.60;;
38479;SDS011;62333;51.980;5.934;2023-06-19T12:16:13;4.10;;;2.25;;
38479;SDS011;62333;51.980;5.934;2023-06-19T12:18:39;7.57;;;4.47;;
38479;SDS011;62333;51.980;5.934;2023-06-19T12:21:05;8.02;;;2.63;;
38479;SDS011;62333;51.980;5.934;2023-06-19T12:23:31;4.35;;;2.00;;
38479;SDS011;62333;51.980;5.934;2023-06-19T12:25:57;4.32;;;2.97;;
38479;SDS011;62333;51.980;5.934;2023-06-19T12:28:23;4.13;;;2.08;;
38479;SDS011;62333;51.980;5.934;2023-06-19T12:30:50;6.25;;;2.72;;
38479;SDS011;62333;51.980;5.934;2023-06-19T12:33:19;3.72;;;2.05;;
38479;SDS011;62333;51.980;5.934;2023-06-19T12:35:47;6.15;;;2.42;;
38479;SDS011;62333;51.980;5.934;2023-06-19T12:38:13;5.65;;;3.25;;
38479;SDS011;62333;51.980;5.934;2023-06-19T12:40:39;4.35;;;3.55;;
38479;SDS011;62333;51.980;5.934;2023-06-19T12:43:05;3.10;;;2.17;;
38479;SDS011;62333;51.980;5.934;2023-06-19T12:45:31;13.32;;;9.88;;
38479;SDS011;62333;51.980;5.934;2023-06-19T12:47:57;6.57;;;4.05;;
38479;SDS011;62333;51.980;5.934;2023-06-19T12:50:23;4.25;;;2.78;;
38479;SDS011;62333;51.980;5.934;2023-06-19T12:52:48;6.60;;;3.17;;
38479;SDS011;62333;51.980;5.934;2023-06-19T12:55:15;3.95;;;2.30;;
38479;SDS011;62333;51.980;5.934;2023-06-19T12:57:41;6.53;;;3.00;;
38479;SDS011;62333;51.980;5.934;2023-06-19T13:00:10;5.82;;;4.32;;
38479;SDS011;62333;51.980;5.934;2023-06-19T13:05:04;4.60;;;2.72;;
38479;SDS011;62333;51.980;5.934;2023-06-19T13:07:30;3.25;;;2.13;;
38479;SDS011;62333;51.980;5.934;2023-06-19T13:09:56;4.15;;;2.55;;
38479;SDS011;62333;51.980;5.934;2023-06-19T13:12:22;4.05;;;2.13;;
38479;SDS011;62333;51.980;5.934;2023-06-19T13:14:47;4.22;;;2.78;;
38479;SDS011;62333;51.980;5.934;2023-06-19T13:17:13;3.65;;;2.53;;
38479;SDS011;62333;51.980;5.934;2023-06-19T13:19:39;4.40;;;3.13;;
38479;SDS011;62333;51.980;5.934;2023-06-19T13:22:05;5.20;;;2.45;;
38479;SDS011;62333;51.980;5.934;2023-06-19T13:24:31;7.55;;;5.78;;
38479;SDS011;62333;51.980;5.934;2023-06-19T13:26:56;6.05;;;4.32;;
38479;SDS011;62333;51.980;5.934;2023-06-19T13:29:22;4.63;;;3.00;;
38479;SDS011;62333;51.980;5.934;2023-06-19T13:31:48;6.50;;;3.95;;
38479;SDS011;62333;51.980;5.934;2023-06-19T13:34:14;5.30;;;2.33;;
38479;SDS011;62333;51.980;5.934;2023-06-19T13:36:39;7.20;;;5.95;;
38479;SDS011;62333;51.980;5.934;2023-06-19T13:39:05;4.93;;;3.33;;
38479;SDS011;62333;51.980;5.934;2023-06-19T13:41:31;6.75;;;2.08;;
38479;SDS011;62333;51.980;5.934;2023-06-19T13:43:58;7.07;;;3.63;;
38479;SDS011;62333;51.980;5.934;2023-06-19T13:46:25;6.05;;;2.50;;
38479;SDS011;62333;51.980;5.934;2023-06-19T13:48:50;5.40;;;1.92;;
38479;SDS011;62333;51.980;5.934;2023-06-19T13:51:17;4.57;;;2.35;;
38479;SDS011;62333;51.980;5.934;2023-06-19T13:53:43;4.43;;;3.10;;
38479;SDS011;62333;51.980;5.934;2023-06-19T13:56:09;5.45;;;2.33;;
38479;SDS011;62333;51.980;5.934;2023-06-19T13:58:35;4.88;;;2.60;;
38479;SDS011;62333;51.980;5.934;2023-06-19T14:01:01;5.10;;;2.28;;
38479;SDS011;62333;51.980;5.934;2023-06-19T14:03:27;4.50;;;2.05;;
38479;SDS011;62333;51.980;5.934;2023-06-19T14:05:52;6.60;;;2.45;;
38479;SDS011;62333;51.980;5.934;2023-06-19T14:08:18;5.18;;;3.72;;
38479;SDS011;62333;51.980;5.934;2023-06-19T14:10:43;4.22;;;2.80;;
38479;SDS011;62333;51.980;5.934;2023-06-19T14:13:09;4.97;;;3.13;;
38479;SDS011;62333;51.980;5.934;2023-06-19T14:15:35;3.95;;;2.25;;
38479;SDS011;62333;51.980;5.934;2023-06-19T14:18:01;4.57;;;3.10;;
38479;SDS011;62333;51.980;5.934;2023-06-19T14:20:27;6.53;;;2.40;;
38479;SDS011;62333;51.980;5.934;2023-06-19T14:22:52;4.75;;;3.13;;
38479;SDS011;62333;51.980;5.934;2023-06-19T14:25:18;4.15;;;2.65;;
38479;SDS011;62333;51.980;5.934;2023-06-19T14:27:44;6.15;;;2.20;;
38479;SDS011;62333;51.980;5.934;2023-06-19T14:30:09;4.65;;;3.13;;
38479;SDS011;62333;51.980;5.934;2023-06-19T14:32:36;7.07;;;3.85;;
38479;SDS011;62333;51.980;5.934;2023-06-19T14:35:04;6.03;;;3.70;;
38479;SDS011;62333;51.980;5.934;2023-06-19T14:37:31;9.85;;;4.25;;
38479;SDS011;62333;51.980;5.934;2023-06-19T14:39:56;8.48;;;3.70;;
38479;SDS011;62333;51.980;5.934;2023-06-19T14:42:22;4.95;;;3.00;;
38479;SDS011;62333;51.980;5.934;2023-06-19T14:44:48;8.32;;;4.00;;
38479;SDS011;62333;51.980;5.934;2023-06-19T14:47:14;5.50;;;3.67;;
38479;SDS011;62333;51.980;5.934;2023-06-19T14:49:40;4.65;;;2.63;;
38479;SDS011;62333;51.980;5.934;2023-06-19T14:52:05;9.13;;;5.25;;
38479;SDS011;62333;51.980;5.934;2023-06-19T14:54:31;6.28;;;3.58;;